Time;durP1;ratioP1;P1;durP2;ratioP2;P2;SDS_P1;SDS_P2;PMS_P1;PMS_P2;Temp;Humidity;BMP_temperature;BMP_pressure;BME280_temperature;BME280_humidity;BME280_pressure;Samples;Min_cycle;Max_cycle;Signal;HPM_P1;HPM_P2
2023/08/31 00:00:52;;;;;;;3.00;2.30;;;;;;;22.20;48.43;94347.66;5060801;28;20189;-68
2023/08/31 00:03:19;;;;;;;3.20;2.20;;;;;;;22.16;48.89;94354.63;5060867;28;20254;-68
2023/08/31 00:05:46;;;;;;;2.65;2.40;;;;;;;22.09;49.21;94352.75;5078255;28;20617;-68
2023/08/31 00:08:13;;;;;;;5.43;2.40;;;;;;;22.01;49.42;94348.59;5060648;28;20224;-68
2023/08/31 00:10:40;;;;;;;3.30;2.25;;;;;;;21.96;49.43;94352.72;5060649;28;20193;-68
2023/08/31 00:13:07;;;;;;;3.30;2.30;;;;;;;21.92;49.70;94349.22;5078240;28;20192;-68
2023/08/31 00:15:36;;;;;;;4.90;2.70;;;;;;;21.86;49.95;94349.00;5078191;28;20189;-68
2023/08/31 00:18:04;;;;;;;3.80;2.65;;;;;;;21.82;50.14;94345.50;5077732;28;20231;-68
2023/08/31 00:20:31;;;;;;;2.72;2.10;;;;;;;21.77;50.37;94346.03;5060366;28;20262;-68
2023/08/31 00:22:58;;;;;;;4.40;2.20;;;;;;;21.72;50.42;94348.59;5078046;28;20200;-68
2023/08/31 00:25:24;;;;;;;3.13;2.30;;;;;;;21.69;49.39;94350.25;5077934;28;20243;-68
2023/08/31 00:27:52;;;;;;;2.75;2.08;;;;;;;21.73;49.80;94348.13;5077860;28;20216;-69
2023/08/31 00:30:19;;;;;;;2.63;2.30;;;;;;;21.79;49.60;94360.41;5060357;28;20229;-68
2023/08/31 00:32:48;;;;;;;2.65;2.30;;;;;;;21.85;49.19;94361.44;5077746;28;20570;-68
2023/08/31 00:35:15;;;;;;;2.78;2.00;;;;;;;21.92;48.99;94357.63;5077162;28;20261;-68
2023/08/31 00:37:41;;;;;;;2.75;2.00;;;;;;;22.00;48.45;94361.03;5077806;28;20226;-69
2023/08/31 00:40:09;;;;;;;3.15;2.22;;;;;;;;;;5060028;28;20201;-68
2023/08/31 00:42:37;;;;;;;2.95;2.05;;;;;;;22.10;48.41;94365.56;5077793;28;20280;-69
2023/08/31 00:45:05;;;;;;;2.95;1.95;;;;;;;22.15;48.43;94369.88;5077490;28;20629;-69
2023/08/31 00:47:32;;;;;;;3.95;2.20;;;;;;;22.15;48.36;94376.28;5077620;28;20279;-68
2023/08/31 00:50:01;;;;;;;3.35;1.90;;;;;;;22.15;47.98;94372.69;5060050;28;20203;-68
2023/08/31 00:52:27;;;;;;;2.72;2.13;;;;;;;22.13;47.95;94367.47;5077183;28;20197;-68
2023/08/31 00:54:55;;;;;;;2.80;2.00;;;;;;;22.08;48.02;94365.25;5060384;28;20212;-68
2023/08/31 00:57:22;;;;;;;2.05;1.85;;;;;;;22.03;48.38;94368.56;5060092;28;20189;-68
2023/08/31 00:59:48;;;;;;;3.08;1.88;;;;;;;21.98;48.37;94369.91;5075362;28;20208;-69
2023/08/31 01:02:20;;;;;;;2.30;2.05;;;;;;;21.96;48.80;94368.78;5076837;28;20613;-69
2023/08/31 01:04:51;;;;;;;3.88;2.28;;;;;;;21.90;48.64;94376.19;5077303;28;20197;-68
2023/08/31 01:07:26;;;;;;;3.25;2.20;;;;;;;21.86;49.00;94374.25;5077209;28;20212;-69
2023/08/31 01:10:01;;;;;;;2.47;2.08;;;;;;;21.83;49.17;94379.97;5077109;28;20266;-70
2023/08/31 01:12:33;;;;;;;3.20;1.83;;;;;;;21.85;49.31;94378.28;5076176;28;20204;-69
2023/08/31 01:15:07;;;;;;;2.75;2.10;;;;;;;21.88;49.42;94379.41;5059384;28;20198;-69
2023/08/31 01:17:35;;;;;;;2.42;2.08;;;;;;;21.84;49.70;94387.16;5077238;28;20235;-69
2023/08/31 01:20:03;;;;;;;2.70;1.90;;;;;;;21.79;49.84;94390.50;5076900;28;20283;-68
2023/08/31 01:22:40;;;;;;;3.08;2.05;;;;;;;21.76;49.98;94392.16;5076524;28;20513;-69
2023/08/31 01:25:09;;;;;;;2.47;2.17;;;;;;;21.73;50.09;94381.81;5076937;28;20553;-69
2023/08/31 01:27:36;;;;;;;3.05;2.17;;;;;;;21.71;50.15;94378.66;5058927;28;20262;-68
2023/08/31 01:30:03;;;;;;;2.38;2.17;;;;;;;21.65;50.36;94380.44;5059281;28;20217;-68
2023/08/31 01:32:30;;;;;;;2.30;2.00;;;;;;;21.58;50.60;94384.22;5075673;28;20204;-68
2023/08/31 01:34:58;;;;;;;2.88;2.20;;;;;;;21.53;50.75;94376.34;5059067;28;20546;-68
2023/08/31 01:37:32;;;;;;;2.65;2.08;;;;;;;21.48;51.03;94367.66;5076471;28;20263;-68
2023/08/31 01:40:05;;;;;;;2.47;2.15;;;;;;;21.42;51.16;94373.00;5059024;28;20201;-69
2023/08/31 01:42:33;;;;;;;3.17;2.30;;;;;;;21.37;51.69;94382.75;5076550;28;20193;-69
2023/08/31 01:45:00;;;;;;;4.03;2.70;;;;;;;21.36;51.46;94383.19;5058163;28;20357;-68
2023/08/31 01:47:27;;;;;;;2.70;2.13;;;;;;;21.37;51.96;94379.94;5076344;28;20190;-69
2023/08/31 01:49:54;;;;;;;3.25;2.13;;;;;;;21.43;51.66;94379.44;5058710;28;20220;-69
2023/08/31 01:52:21;;;;;;;3.25;2.30;;;;;;;21.44;51.58;94375.38;5076338;28;20192;-69
2023/08/31 01:54:47;;;;;;;2.20;2.00;;;;;;;21.46;51.31;94375.72;5076323;28;20226;-69
2023/08/31 01:57:14;;;;;;;2.75;2.40;;;;;;;21.44;51.21;94378.97;5075901;28;20189;-69
2023/08/31 01:59:42;;;;;;;3.13;2.53;;;;;;;21.43;51.14;94380.22;5058724;28;20266;-69
2023/08/31 02:02:09;;;;;;;3.05;1.98;;;;;;;21.40;51.26;94381.09;5058691;28;20512;-69
2023/08/31 02:04:36;;;;;;;3.03;2.30;;;;;;;21.38;51.43;94389.13;5076009;28;20204;-69
2023/08/31 02:07:03;;;;;;;3.53;2.28;;;;;;;21.32;51.16;94385.28;5075970;28;20185;-69
2023/08/31 02:09:29;;;;;;;2.65;2.08;;;;;;;21.29;51.74;94395.34;5075868;28;20201;-69
2023/08/31 02:11:56;;;;;;;2.75;2.05;;;;;;;21.27;51.92;94403.41;5075608;28;20189;-69
2023/08/31 02:14:23;;;;;;;2.90;2.20;;;;;;;21.20;51.79;94397.19;5058295;28;20208;-69
2023/08/31 02:16:52;;;;;;;2.97;2.15;;;;;;;21.10;52.24;94405.44;5058625;28;20197;-68
2023/08/31 02:19:18;;;;;;;2.33;2.10;;;;;;;21.08;51.76;94399.44;5058623;28;20201;-68
2023/08/31 02:21:45;;;;;;;2.20;2.00;;;;;;;21.14;51.87;94392.09;5075363;28;20197;-68
2023/08/31 02:24:12;;;;;;;3.13;2.40;;;;;;;21.09;52.48;94397.44;5075690;28;20193;-69
2023/08/31 02:26:39;;;;;;;4.38;2.40;;;;;;;20.95;52.62;94401.34;5075589;28;20199;-68
2023/08/31 02:29:05;;;;;;;2.83;2.40;;;;;;;20.89;53.22;94394.72;5057869;28;20659;-68
2023/08/31 02:31:32;;;;;;;2.70;2.30;;;;;;;20.89;52.95;94398.31;5057951;28;20197;-68
2023/08/31 02:34:00;;;;;;;4.00;2.30;;;;;;;20.87;53.09;94397.16;5075507;28;20185;-68
2023/08/31 02:36:27;;;;;;;3.55;2.40;;;;;;;20.82;53.48;94397.69;5075130;28;20590;-68
2023/08/31 02:38:54;;;;;;;2.67;2.10;;;;;;;20.73;54.19;94397.47;5058216;28;20188;-69
2023/08/31 02:41:20;;;;;;;3.70;2.22;;;;;;;20.66;53.79;94399.22;5075232;28;20627;-68
2023/08/31 02:43:47;;;;;;;2.63;2.20;;;;;;;20.65;53.20;94394.84;5075453;28;20200;-69
2023/08/31 02:46:14;;;;;;;3.92;2.38;;;;;;;20.63;53.49;94391.69;5075241;28;20220;-69
2023/08/31 02:48:40;;;;;;;4.13;2.30;;;;;;;20.58;53.33;94399.81;5075394;28;20270;-69
2023/08/31 02:51:09;;;;;;;3.92;2.30;;;;;;;20.56;53.33;94397.44;5057654;28;20193;-69
2023/08/31 02:53:36;;;;;;;3.40;2.40;;;;;;;20.53;53.63;94400.34;5075350;28;20190;-69
2023/08/31 02:56:02;;;;;;;3.20;2.35;;;;;;;20.48;53.80;94401.59;5075275;28;20204;-69
2023/08/31 02:58:29;;;;;;;3.20;2.10;;;;;;;20.44;53.77;94415.69;5075220;28;20189;-69
2023/08/31 03:00:57;;;;;;;3.05;2.33;;;;;;;20.41;54.12;94421.38;5075218;28;20189;-69
2023/08/31 03:03:23;;;;;;;2.63;2.38;;;;;;;20.36;54.09;94413.44;5075216;28;20280;-69
2023/08/31 03:05:56;;;;;;;2.50;2.30;;;;;;;20.35;54.39;94421.06;5075288;28;20196;-70
2023/08/31 03:08:24;;;;;;;3.13;2.15;;;;;;;20.38;53.92;94417.41;5074963;28;20212;-69
2023/08/31 03:10:53;;;;;;;2.80;2.20;;;;;;;20.41;53.91;94418.56;5057193;28;20189;-69
2023/08/31 03:13:19;;;;;;;3.20;2.40;;;;;;;20.45;53.88;94424.88;5075515;28;20199;-70
2023/08/31 03:15:46;;;;;;;3.92;2.50;;;;;;;20.40;53.93;94420.56;5075048;28;20235;-69
2023/08/31 03:18:13;;;;;;;3.25;2.10;;;;;;;20.28;54.01;94418.41;5075000;28;20213;-69
2023/08/31 03:20:39;;;;;;;4.32;2.65;;;;;;;20.18;54.56;94428.59;5074996;28;20192;-69
2023/08/31 03:23:06;;;;;;;3.17;2.42;;;;;;;20.15;54.63;94421.09;5076740;28;20209;-69
2023/08/31 03:25:34;;;;;;;3.00;2.28;;;;;;;20.16;54.54;94425.47;5078805;28;20208;-69
2023/08/31 03:28:01;;;;;;;2.42;2.13;;;;;;;20.15;54.63;94418.28;5044887;28;20193;-69
2023/08/31 03:30:28;;;;;;;4.22;2.63;;;;;;;20.09;54.55;94427.63;5078522;28;20216;-69
2023/08/31 03:32:54;;;;;;;3.53;2.45;;;;;;;20.03;54.63;94427.31;5061586;28;20193;-69
2023/08/31 03:35:26;;;;;;;4.30;2.47;;;;;;;20.04;55.14;94425.28;5061598;28;20200;-69
2023/08/31 03:37:53;;;;;;;3.90;2.67;;;;;;;20.00;55.04;94422.56;5061385;28;20216;-69
2023/08/31 03:40:19;;;;;;;6.00;2.65;;;;;;;20.00;55.12;94428.16;5061248;28;20201;-69
2023/08/31 03:42:48;;;;;;;4.38;2.25;;;;;;;19.95;55.35;94429.47;5078971;28;20270;-69
2023/08/31 03:45:15;;;;;;;3.63;2.50;;;;;;;19.91;55.48;94431.53;5078918;28;20314;-69
2023/08/31 03:47:41;;;;;;;4.38;2.33;;;;;;;19.86;55.19;94432.03;5061332;28;20250;-69
2023/08/31 03:50:09;;;;;;;2.75;2.38;;;;;;;19.82;55.65;94439.69;5061052;28;20217;-69
2023/08/31 03:52:36;;;;;;;5.30;3.20;;;;;;;19.80;55.59;94447.75;5078506;28;20204;-69
2023/08/31 03:55:02;;;;;;;8.20;3.20;;;;;;;19.75;55.44;94448.22;5061549;28;20204;-70
2023/08/31 03:57:29;;;;;;;3.20;2.90;;;;;;;19.69;55.61;94449.94;5078284;28;20196;-68
2023/08/31 03:59:57;;;;;;;3.75;2.40;;;;;;;19.78;55.54;94449.38;5078457;28;20185;-68
2023/08/31 04:02:24;;;;;;;5.22;4.50;;;;;;;19.81;55.58;94456.91;5078356;28;20314;-69
2023/08/31 04:04:51;;;;;;;4.90;3.80;;;;;;;19.83;55.26;94462.88;5060783;28;20197;-69
2023/08/31 04:07:17;;;;;;;5.60;3.67;;;;;;;19.81;55.47;94465.31;5060671;28;20196;-68
2023/08/31 04:09:44;;;;;;;5.90;4.13;;;;;;;19.75;56.12;94481.00;5060250;28;20266;-68
2023/08/31 04:12:11;;;;;;;6.43;3.50;;;;;;;19.78;56.24;94491.34;5078188;28;20189;-68
2023/08/31 04:14:37;;;;;;;5.10;3.60;;;;;;;19.82;56.03;94492.06;5060541;28;20586;-68
2023/08/31 04:17:06;;;;;;;5.30;3.90;;;;;;;19.82;55.94;94492.06;5078143;28;20185;-68
2023/08/31 04:19:32;;;;;;;5.53;3.67;;;;;;;19.87;55.76;94484.00;5078127;28;20204;-68
2023/08/31 04:21:59;;;;;;;7.35;4.28;;;;;;;19.90;55.71;94491.53;5077739;28;20181;-68
2023/08/31 04:24:26;;;;;;;5.97;3.92;;;;;;;19.95;55.78;94488.22;5077997;28;20189;-68
2023/08/31 04:26:52;;;;;;;7.78;4.60;;;;;;;20.00;55.97;94500.94;5077967;28;20204;-68
2023/08/31 04:29:19;;;;;;;6.95;4.60;;;;;;;19.95;55.74;94509.84;5060308;28;20216;-68
2023/08/31 04:31:46;;;;;;;5.45;3.90;;;;;;;19.89;55.34;94509.53;5077056;28;20204;-70
2023/08/31 04:34:14;;;;;;;9.02;3.78;;;;;;;19.86;55.97;94512.38;5077379;28;20196;-68
2023/08/31 04:36:41;;;;;;;11.20;4.03;;;;;;;19.89;55.35;94512.31;5060169;28;20197;-68
2023/08/31 04:39:08;;;;;;;6.35;3.65;;;;;;;19.93;55.87;94506.66;5077851;28;20196;-69
2023/08/31 04:41:35;;;;;;;3.65;3.25;;;;;;;19.94;55.67;94509.06;5060268;28;20534;-68
2023/08/31 04:44:01;;;;;;;5.57;3.90;;;;;;;19.97;55.73;94504.59;5059977;28;20240;-69
2023/08/31 04:46:28;;;;;;;4.57;3.55;;;;;;;20.06;55.82;94510.44;5077562;28;20246;-68
2023/08/31 04:48:56;;;;;;;5.97;3.63;;;;;;;20.09;55.15;94523.56;5077554;28;20185;-68
2023/08/31 04:51:32;;;;;;;7.03;3.42;;;;;;;20.11;55.73;94531.53;5077224;28;20196;-68
2023/08/31 04:53:59;;;;;;;8.63;4.50;;;;;;;20.11;55.68;94523.91;5077354;28;20185;-68
2023/08/31 04:56:25;;;;;;;6.25;4.43;;;;;;;20.12;56.34;94514.31;5076975;28;20193;-68
2023/08/31 04:58:52;;;;;;;6.90;4.50;;;;;;;20.11;57.05;94526.72;5060357;28;20197;-68
2023/08/31 05:01:19;;;;;;;6.30;4.43;;;;;;;20.12;57.13;94516.34;5077042;28;20203;-70
2023/08/31 05:03:46;;;;;;;10.27;5.03;;;;;;;20.13;57.10;94529.09;5077398;28;20207;-68
2023/08/31 05:06:12;;;;;;;6.85;4.32;;;;;;;20.20;56.77;94529.75;5076934;28;20189;-68
2023/08/31 05:08:41;;;;;;;5.68;4.28;;;;;;;20.27;56.80;94522.47;5059757;28;20197;-68
2023/08/31 05:11:07;;;;;;;7.70;4.15;;;;;;;20.32;56.66;94533.94;5059859;28;20552;-68
2023/08/31 05:13:34;;;;;;;6.05;4.07;;;;;;;20.33;56.52;94531.94;5059497;28;20197;-69
2023/08/31 05:16:02;;;;;;;7.18;4.00;;;;;;;20.35;56.02;94533.09;5077056;28;20196;-69
2023/08/31 05:18:29;;;;;;;8.38;4.13;;;;;;;20.37;55.45;94525.06;5076690;28;20259;-69
2023/08/31 05:20:56;;;;;;;4.78;3.40;;;;;;;20.39;55.40;94524.63;5076808;28;20185;-70
2023/08/31 05:23:22;;;;;;;5.93;3.40;;;;;;;20.42;55.03;94530.16;5076629;28;20633;-69
2023/08/31 05:25:51;;;;;;;3.72;3.30;;;;;;;20.44;55.30;94533.31;5059580;28;20227;-70
2023/08/31 05:28:17;;;;;;;4.18;2.88;;;;;;;20.47;54.83;94534.44;5059245;28;20208;-69
2023/08/31 05:30:50;;;;;;;5.15;3.00;;;;;;;20.50;54.02;94530.03;5059261;28;20225;-70
2023/08/31 05:33:17;;;;;;;3.40;2.92;;;;;;;20.52;54.04;94531.19;5076836;28;20193;-69
2023/08/31 05:35:43;;;;;;;3.78;2.80;;;;;;;20.56;54.20;94522.72;5076635;28;20186;-69
2023/08/31 05:38:10;;;;;;;4.25;3.08;;;;;;;20.58;54.19;94526.66;5076631;28;20185;-70
2023/08/31 05:40:37;;;;;;;2.50;2.30;;;;;;;20.56;53.98;94517.13;5058894;28;20200;-70
2023/08/31 05:43:05;;;;;;;3.88;2.83;;;;;;;20.58;53.75;94525.88;5076672;28;20239;-69
2023/08/31 05:45:33;;;;;;;3.53;2.88;;;;;;;20.62;54.20;94521.78;5054926;28;20579;-69
2023/08/31 05:48:00;;;;;;;6.13;2.83;;;;;;;20.62;53.79;94524.56;5055639;28;20202;-69
2023/08/31 05:50:27;;;;;;;4.13;2.70;;;;;;;20.65;54.00;94520.91;5056168;28;20216;-69
2023/08/31 05:52:54;;;;;;;3.15;2.08;;;;;;;20.66;53.26;94522.50;5056292;28;20193;-69
2023/08/31 05:55:21;;;;;;;3.88;2.20;;;;;;;20.73;52.57;94513.16;5056282;28;20192;-69
2023/08/31 05:57:47;;;;;;;4.93;2.40;;;;;;;20.79;52.65;94517.03;5056219;28;20185;-69
2023/08/31 06:00:16;;;;;;;2.13;2.00;;;;;;;20.86;52.33;94519.69;5055296;28;20201;-69
2023/08/31 06:02:44;;;;;;;2.85;2.30;;;;;;;20.91;52.84;94527.59;5056159;28;20185;-69
2023/08/31 06:05:12;;;;;;;3.15;1.92;;;;;;;20.93;52.81;94518.75;5056093;28;20209;-69
2023/08/31 06:07:39;;;;;;;2.80;2.33;;;;;;;20.98;53.16;94532.25;5054778;28;20610;-69
2023/08/31 06:10:07;;;;;;;2.50;2.13;;;;;;;21.00;53.62;94529.81;5054728;28;20684;-69
2023/08/31 06:12:34;;;;;;;4.10;2.55;;;;;;;20.96;53.68;94531.91;5055981;28;20193;-69
2023/08/31 06:15:00;;;;;;;3.33;2.42;;;;;;;20.91;53.42;94529.59;5055240;28;20233;-69
2023/08/31 06:17:29;;;;;;;3.92;2.53;;;;;;;20.87;52.89;94540.09;5055561;28;20197;-69
2023/08/31 06:19:55;;;;;;;2.97;2.20;;;;;;;20.83;53.05;94540.16;5054831;28;20544;-70
2023/08/31 06:22:22;;;;;;;3.65;2.28;;;;;;;20.83;53.73;94545.78;5055778;28;20186;-70
2023/08/31 06:24:49;;;;;;;3.30;2.25;;;;;;;20.83;54.28;94551.38;5054976;28;20194;-70
2023/08/31 06:27:17;;;;;;;3.80;2.40;;;;;;;20.85;54.23;94550.97;5054791;28;20271;-70
2023/08/31 06:29:44;;;;;;;3.72;2.22;;;;;;;20.86;54.05;94553.31;5071301;28;20245;-69
2023/08/31 06:32:11;;;;;;;2.88;2.47;;;;;;;20.90;54.29;94556.03;5055240;28;20536;-70
2023/08/31 06:34:39;;;;;;;3.28;2.40;;;;;;;20.93;54.35;94560.78;5055594;28;20182;-70
2023/08/31 06:37:05;;;;;;;4.13;2.60;;;;;;;20.96;54.55;94562.75;5055023;28;20202;-70
2023/08/31 06:39:32;;;;;;;5.80;2.67;;;;;;;20.99;54.51;94563.88;5054489;28;20202;-69
2023/08/31 06:41:59;;;;;;;4.10;2.83;;;;;;;21.00;54.91;94569.06;5054280;28;20206;-70
2023/08/31 06:44:26;;;;;;;3.22;2.20;;;;;;;21.01;54.26;94567.03;5054190;28;20241;-69
2023/08/31 06:46:53;;;;;;;6.22;2.40;;;;;;;21.02;53.78;94574.22;5055363;28;20186;-70
2023/08/31 06:49:20;;;;;;;2.47;2.08;;;;;;;21.06;54.54;94574.94;5055285;28;20272;-70
2023/08/31 06:51:48;;;;;;;2.38;1.85;;;;;;;21.11;55.04;94578.03;5054365;28;20206;-69
2023/08/31 06:54:15;;;;;;;2.97;2.35;;;;;;;21.19;54.36;94581.47;5054374;28;20256;-69
2023/08/31 06:56:42;;;;;;;3.40;2.25;;;;;;;21.24;53.64;94566.13;5054619;28;20275;-69
2023/08/31 06:59:08;;;;;;;2.55;2.30;;;;;;;21.29;53.89;94571.25;5053711;28;20545;-69
2023/08/31 07:01:35;;;;;;;3.55;2.30;;;;;;;21.32;54.16;94576.00;5055205;28;20193;-69
2023/08/31 07:04:04;;;;;;;3.75;2.45;;;;;;;21.34;53.99;94574.34;5055100;28;20182;-69
2023/08/31 07:06:30;;;;;;;4.80;2.80;;;;;;;21.37;53.91;94578.31;5054637;28;20190;-69
2023/08/31 07:08:58;;;;;;;2.63;2.40;;;;;;;21.44;53.09;94575.34;5054857;28;20560;-69
2023/08/31 07:11:26;;;;;;;3.75;3.00;;;;;;;21.52;53.32;94581.56;5054936;28;20225;-69
2023/08/31 07:13:53;;;;;;;3.03;2.70;;;;;;;21.57;53.16;94578.28;5054227;28;20202;-70
2023/08/31 07:16:19;;;;;;;3.53;2.70;;;;;;;21.61;52.75;94576.16;5053685;28;20207;-69
2023/08/31 07:18:46;;;;;;;3.90;2.75;;;;;;;21.67;52.77;94584.84;5054264;28;20535;-69
2023/08/31 07:21:13;;;;;;;3.70;2.70;;;;;;;21.69;52.14;94579.59;5054947;28;20182;-69
2023/08/31 07:23:39;;;;;;;3.83;2.40;;;;;;;21.71;51.61;94586.31;5054244;28;20208;-69
2023/08/31 07:26:08;;;;;;;8.20;3.63;;;;;;;21.76;51.64;94579.44;5054873;28;20209;-69
2023/08/31 07:28:35;;;;;;;3.80;2.60;;;;;;;21.79;51.11;94582.16;5054614;28;20542;-69
2023/08/31 07:31:03;;;;;;;3.85;2.78;;;;;;;21.83;50.63;94576.44;5053818;28;20229;-69
2023/08/31 07:33:31;;;;;;;3.20;2.45;;;;;;;21.88;50.17;94587.94;5070996;28;20296;-70
2023/08/31 07:35:58;;;;;;;4.47;2.60;;;;;;;21.97;51.06;94584.53;5054628;28;20194;-70
2023/08/31 07:38:25;;;;;;;4.53;2.45;;;;;;;22.07;50.99;94579.84;5054792;28;20249;-70
2023/08/31 07:40:51;;;;;;;2.38;2.17;;;;;;;22.21;50.62;94582.34;5054508;28;20529;-70
2023/08/31 07:43:19;;;;;;;2.92;1.95;;;;;;;22.41;47.71;94589.88;5054128;28;20618;-69
2023/08/31 07:45:46;;;;;;;2.65;2.03;;;;;;;22.39;48.14;94590.31;5053275;28;20245;-70
2023/08/31 07:48:13;;;;;;;2.83;2.20;;;;;;;22.39;48.17;94590.31;5054650;28;20182;-70
2023/08/31 07:50:41;;;;;;;2.70;2.40;;;;;;;22.43;48.97;94581.78;5054732;28;20206;-70
2023/08/31 07:53:08;;;;;;;4.15;2.40;;;;;;;22.51;49.56;94592.41;5054764;28;20186;-69
2023/08/31 07:55:35;;;;;;;2.00;1.80;;;;;;;22.61;48.66;94593.34;5054400;28;20261;-70
2023/08/31 07:58:02;;;;;;;2.80;1.80;;;;;;;22.69;48.53;94599.56;5053772;28;20198;-70
2023/08/31 08:00:30;;;;;;;2.58;1.98;;;;;;;22.70;48.23;94599.13;5054272;28;20205;-70
2023/08/31 08:02:57;;;;;;;5.85;4.30;;;;;;;22.67;48.30;94599.22;5054271;28;20201;-70
2023/08/31 08:05:24;;;;;;;3.92;2.70;;;;;;;22.67;48.60;94605.63;5054634;28;20202;-70
2023/08/31 08:07:50;;;;;;;4.60;2.35;;;;;;;22.72;48.62;94601.47;5054624;28;20204;-70
2023/08/31 08:10:17;;;;;;;4.78;2.28;;;;;;;22.72;48.96;94602.25;5057804;28;20217;-69
2023/08/31 08:12:45;;;;;;;2.65;1.90;;;;;;;22.79;48.89;94602.06;5057920;28;20198;-69
2023/08/31 08:15:12;;;;;;;2.67;2.28;;;;;;;22.87;48.34;94599.84;5057840;28;20275;-70
2023/08/31 08:17:40;;;;;;;5.40;3.72;;;;;;;22.93;46.03;94606.56;5058065;28;20255;-70
2023/08/31 08:20:09;;;;;;;3.60;2.83;;;;;;;23.00;44.09;94599.94;5057187;28;20200;-70
2023/08/31 08:22:36;;;;;;;4.05;3.10;;;;;;;23.08;44.23;94597.72;5058008;28;20198;-70
2023/08/31 08:25:03;;;;;;;4.57;3.35;;;;;;;23.16;43.79;94601.88;5058152;28;20178;-70
2023/08/31 08:27:31;;;;;;;4.22;3.00;;;;;;;23.23;43.92;94596.84;5057739;28;20216;-70
2023/08/31 08:29:58;;;;;;;5.22;3.47;;;;;;;23.34;41.44;94590.91;5057660;28;20194;-70
2023/08/31 08:32:25;;;;;;;5.30;4.47;;;;;;;23.49;39.79;94603.31;5057809;28;20193;-70
2023/08/31 08:34:53;;;;;;;4.28;3.85;;;;;;;23.59;38.13;94604.22;5056833;28;20671;-70
2023/08/31 08:37:20;;;;;;;4.90;4.10;;;;;;;23.66;36.86;94591.97;5057860;28;20200;-70
2023/08/31 08:39:49;;;;;;;5.55;4.28;;;;;;;23.72;36.24;94588.16;5057960;28;20202;-70
2023/08/31 08:42:17;;;;;;;7.03;4.68;;;;;;;23.80;35.06;94597.19;5057652;28;20617;-70
2023/08/31 08:44:44;;;;;;;6.32;4.32;;;;;;;23.88;35.40;94603.38;5056695;28;20225;-70
2023/08/31 08:47:12;;;;;;;5.05;4.10;;;;;;;23.94;35.43;94598.75;5057268;28;20212;-70
2023/08/31 08:49:39;;;;;;;4.93;4.13;;;;;;;24.04;35.14;94611.72;5056491;28;20619;-69
2023/08/31 08:52:07;;;;;;;5.20;4.28;;;;;;;24.09;35.19;94591.41;5057396;28;20220;-70
2023/08/31 08:54:35;;;;;;;4.75;4.25;;;;;;;24.15;36.06;94600.09;5056527;28;20190;-69
2023/08/31 08:57:03;;;;;;;4.40;3.92;;;;;;;24.22;35.24;94600.66;5056611;28;20198;-70
2023/08/31 08:59:31;;;;;;;4.60;4.00;;;;;;;24.33;36.33;94599.47;5056477;28;20193;-69
2023/08/31 09:01:58;;;;;;;4.50;4.00;;;;;;;24.41;36.61;94595.22;5056447;28;20193;-69
2023/08/31 09:04:25;;;;;;;4.68;4.10;;;;;;;24.43;36.49;94593.50;5056360;28;20327;-70
2023/08/31 09:06:51;;;;;;;4.75;3.78;;;;;;;24.48;37.58;94595.00;5056411;28;20263;-69
2023/08/31 09:09:19;;;;;;;4.60;4.03;;;;;;;24.59;37.99;94586.16;5057228;28;20178;-69
2023/08/31 09:11:46;;;;;;;4.43;3.80;;;;;;;24.66;38.11;94592.34;5056826;28;20267;-69
2023/08/31 09:14:17;;;;;;;4.68;3.60;;;;;;;24.61;37.54;94594.94;5056138;28;20205;-70
2023/08/31 09:16:45;;;;;;;4.72;3.70;;;;;;;24.52;38.59;94589.22;5056107;28;20190;-69
2023/08/31 09:19:19;;;;;;;5.38;3.90;;;;;;;24.48;38.52;94590.13;5056073;28;20205;-69
2023/08/31 09:21:46;;;;;;;4.80;3.40;;;;;;;24.64;37.39;94586.34;5055107;28;20198;-69
2023/08/31 09:24:13;;;;;;;5.45;3.55;;;;;;;24.68;37.21;94586.22;5055558;28;20216;-69
2023/08/31 09:26:44;;;;;;;5.82;4.20;;;;;;;24.73;37.59;94586.44;5055968;28;20206;-70
2023/08/31 09:29:11;;;;;;;4.88;4.00;;;;;;;24.63;38.08;94590.44;5056866;28;20236;-70
2023/08/31 09:31:38;;;;;;;4.35;3.80;;;;;;;24.54;38.01;94598.00;5056776;28;20259;-70
2023/08/31 09:34:04;;;;;;;4.30;3.75;;;;;;;24.62;38.80;94588.88;5055757;28;20221;-70
2023/08/31 09:36:32;;;;;;;4.90;4.32;;;;;;;24.73;38.40;94589.28;5055657;28;20205;-70
2023/08/31 09:38:59;;;;;;;4.10;3.70;;;;;;;24.67;37.22;94584.66;5056063;28;20197;-70
2023/08/31 09:41:26;;;;;;;4.30;3.83;;;;;;;24.61;37.14;94595.72;5056606;28;20263;-70
2023/08/31 09:43:54;;;;;;;5.13;4.30;;;;;;;24.65;37.46;94567.41;5056838;28;20206;-70
2023/08/31 09:46:22;;;;;;;4.72;4.00;;;;;;;24.95;35.24;94588.50;5076354;28;20193;-70
2023/08/31 09:48:49;;;;;;;4.18;3.78;;;;;;;25.13;34.81;94585.06;5059160;28;20247;-71
2023/08/31 09:51:19;;;;;;;4.10;3.70;;;;;;;25.35;32.99;94582.22;5058599;28;20612;-70
2023/08/31 09:53:48;;;;;;;4.85;3.85;;;;;;;25.45;33.62;94590.28;5076296;28;20232;-70
2023/08/31 09:56:19;;;;;;;4.85;4.05;;;;;;;25.61;32.56;94589.28;5058715;28;20193;-70
2023/08/31 09:58:46;;;;;;;4.28;3.88;;;;;;;25.62;32.25;94590.84;5059094;28;20205;-70
2023/08/31 10:01:14;;;;;;;4.75;4.20;;;;;;;25.64;33.21;94590.41;5076135;28;20192;-70
2023/08/31 10:03:41;;;;;;;5.15;4.45;;;;;;;25.76;31.66;94592.31;5076127;28;20189;-70
2023/08/31 10:06:09;;;;;;;5.32;4.30;;;;;;;25.82;31.02;94587.69;5058375;28;20201;-70
2023/08/31 10:08:36;;;;;;;4.88;4.35;;;;;;;25.92;30.94;94577.19;5058521;28;20193;-71
2023/08/31 10:11:05;;;;;;;5.93;4.15;;;;;;;26.02;30.52;94583.69;5058390;28;20216;-70
2023/08/31 10:13:35;;;;;;;4.38;3.97;;;;;;;26.04;30.44;94567.84;5058466;28;20200;-70
2023/08/31 10:16:01;;;;;;;5.13;4.22;;;;;;;26.16;31.28;94569.75;5058414;28;20251;-70
2023/08/31 10:18:30;;;;;;;5.57;4.32;;;;;;;26.29;31.47;94572.47;5058179;28;20292;-70
2023/08/31 10:20:57;;;;;;;4.53;4.00;;;;;;;26.39;31.72;94562.72;5075882;28;20196;-70
2023/08/31 10:23:24;;;;;;;4.40;4.00;;;;;;;26.50;32.09;94564.34;5058721;28;20185;-70
2023/08/31 10:26:04;;;;;;;5.38;4.25;;;;;;;26.42;32.31;94573.09;5075697;28;20207;-70
2023/08/31 10:28:40;;;;;;;5.35;4.70;;;;;;;26.30;32.06;94581.72;5075645;28;20189;-69
2023/08/31 10:31:08;;;;;;;4.47;4.07;;;;;;;26.18;32.54;94572.09;5075137;28;20235;-69
2023/08/31 10:33:41;;;;;;;4.10;3.70;;;;;;;26.06;32.58;94578.66;5075372;28;20605;-69
2023/08/31 10:36:11;;;;;;;4.53;4.10;;;;;;;25.92;33.22;94582.84;5075450;28;20215;-69
2023/08/31 10:38:37;;;;;;;5.20;4.40;;;;;;;25.82;33.25;94587.69;5057976;28;20185;-70
2023/08/31 10:41:20;;;;;;;4.22;3.53;;;;;;;25.68;33.97;94586.19;5075104;28;20238;-68
2023/08/31 10:43:50;;;;;;;4.20;3.80;;;;;;;25.64;33.91;94590.41;5071606;28;20232;-69
2023/08/31 10:46:18;;;;;;;5.13;3.75;;;;;;;25.63;34.20;94592.41;5057711;28;20189;-70
2023/08/31 10:48:53;;;;;;;4.15;3.33;;;;;;;25.61;33.60;94592.09;5075646;28;20181;-69
2023/08/31 10:51:23;;;;;;;3.92;3.53;;;;;;;25.59;33.73;94591.75;5075404;28;20219;-69
2023/08/31 10:53:50;;;;;;;4.43;3.70;;;;;;;25.60;33.66;94590.53;5057946;28;20196;-69
2023/08/31 10:56:17;;;;;;;4.63;3.80;;;;;;;25.69;34.77;94584.13;5057419;28;20201;-69
2023/08/31 10:58:45;;;;;;;4.03;3.63;;;;;;;25.83;34.66;94589.25;5057277;28;20239;-69
2023/08/31 11:01:13;;;;;;;5.63;4.28;;;;;;;26.01;35.34;94585.72;5057737;28;20600;-69
2023/08/31 11:04:07;;;;;;;6.05;4.00;;;;;;;26.19;33.43;94596.31;5057590;28;20200;-69
2023/08/31 11:06:34;;;;;;;4.25;3.67;;;;;;;26.25;33.75;94591.59;5051778;28;20209;-69
2023/08/31 11:09:01;;;;;;;3.80;3.38;;;;;;;26.38;34.26;94597.13;5074964;28;20185;-69
2023/08/31 11:11:28;;;;;;;3.53;3.20;;;;;;;26.52;33.16;94598.59;5057636;28;20205;-69
2023/08/31 11:13:58;;;;;;;4.95;3.95;;;;;;;26.56;33.19;94594.38;5074898;28;20220;-70
2023/08/31 11:16:24;;;;;;;3.70;3.33;;;;;;;26.48;33.57;94604.41;5057166;28;20291;-69
2023/08/31 11:18:52;;;;;;;4.35;3.30;;;;;;;26.44;33.91;94594.47;5075013;28;20254;-69
2023/08/31 11:21:21;;;;;;;3.47;3.08;;;;;;;26.52;33.20;94593.75;5075044;28;20185;-69
2023/08/31 11:23:48;;;;;;;4.47;3.47;;;;;;;26.58;32.69;94600.34;5057617;28;20197;-69
2023/08/31 11:26:15;;;;;;;5.07;3.42;;;;;;;26.56;32.35;94597.19;5075006;28;20181;-69
2023/08/31 11:28:46;;;;;;;3.50;3.17;;;;;;;26.50;32.61;94587.75;5075213;28;20242;-69
2023/08/31 11:31:13;;;;;;;3.42;3.13;;;;;;;26.41;32.35;94599.81;5074080;28;20200;-69
2023/08/31 11:33:41;;;;;;;3.35;2.97;;;;;;;26.25;32.53;94604.94;5074969;28;20266;-69
2023/08/31 11:36:08;;;;;;;4.95;3.55;;;;;;;26.12;34.76;94605.84;5074996;28;20249;-70